Time;durP1;ratioP1;P1;durP2;ratioP2;P2;SDS_P1;SDS_P2;PMS_P1;PMS_P2;Temp;Humidity;BMP_temperature;BMP_pressure;BME280_temperature;BME280_humidity;BME280_pressure;Samples;Min_cycle;Max_cycle;Signal;HPM_P1;HPM_P2
2023/06/09 00:02:18;;;;;;;4.60;4.20;;;;;;;;;;5056746;28;20048;-59
2023/06/09 00:04:45;;;;;;;7.07;4.18;;;;;;;;;;5057368;28;20025;-59
2023/06/09 00:07:15;;;;;;;6.97;4.97;;;;;;;;;;5056562;28;20040;-59
2023/06/09 00:09:42;;;;;;;5.93;4.47;;;;;;;;;;5056624;28;20040;-59
2023/06/09 00:12:08;;;;;;;5.15;4.65;;;;;;;;;;5057029;28;20025;-59
2023/06/09 00:14:34;;;;;;;6.90;4.20;;;;;;;;;;5056624;28;20053;-59
2023/06/09 00:17:01;;;;;;;5.13;4.53;;;;;;;;;;5056992;28;20024;-59
2023/06/09 00:19:27;;;;;;;5.88;4.57;;;;;;;;;;5056320;28;20025;-59
2023/06/09 00:21:53;;;;;;;5.05;4.38;;;;;;;;;;5057155;28;20044;-59
2023/06/09 00:24:20;;;;;;;6.07;4.38;;;;;;;;;;5056214;28;20021;-59
2023/06/09 00:26:50;;;;;;;5.50;4.72;;;;;;;;;;5056621;28;20108;-59
2023/06/09 00:29:17;;;;;;;6.33;4.53;;;;;;;;;;5056236;28;20368;-59
2023/06/09 00:31:43;;;;;;;4.50;4.10;;;;;;;;;;5055920;28;20252;-59
2023/06/09 00:34:09;;;;;;;5.55;4.00;;;;;;;;;;5056403;28;20036;-59
2023/06/09 00:36:36;;;;;;;6.00;4.18;;;;;;;;;;5056141;28;20359;-59
2023/06/09 00:39:02;;;;;;;4.95;4.32;;;;;;;;;;5056276;28;20036;-59
2023/06/09 00:41:28;;;;;;;5.13;4.30;;;;;;;;;;5055758;28;20062;-59
2023/06/09 00:43:55;;;;;;;5.47;4.70;;;;;;;;;;5055881;28;20115;-59
2023/06/09 00:46:21;;;;;;;5.28;4.63;;;;;;;;;;5056469;28;20033;-59
2023/06/09 00:48:47;;;;;;;4.75;4.25;;;;;;;;;;5055758;28;20060;-59
2023/06/09 00:51:13;;;;;;;5.78;4.75;;;;;;;;;;5056317;28;20367;-59
2023/06/09 00:53:40;;;;;;;4.53;4.10;;;;;;;;;;5056325;28;20025;-59
2023/06/09 00:56:05;;;;;;;5.05;4.55;;;;;;;;;;5054943;28;20025;-59
2023/06/09 00:58:32;;;;;;;5.03;4.53;;;;;;;;;;5055401;28;20028;-59
2023/06/09 01:00:58;;;;;;;5.18;4.65;;;;;;;;;;5055790;28;20049;-59
2023/06/09 01:03:26;;;;;;;6.40;4.43;;;;;;;;;;5055527;28;20100;-59
2023/06/09 01:05:56;;;;;;;5.13;4.60;;;;;;;;;;5055449;28;20036;-59
2023/06/09 01:08:25;;;;;;;6.40;4.20;;;;;;;;;;5055311;28;20028;-59
2023/06/09 01:11:06;;;;;;;4.47;3.88;;;;;;;;;;5055397;28;20256;-59
2023/06/09 01:13:51;;;;;;;6.18;4.63;;;;;;;;;;5055335;28;20029;-59
2023/06/09 01:16:30;;;;;;;4.60;4.15;;;;;;;;;;5055641;28;20032;-59
2023/06/09 01:18:58;;;;;;;4.35;3.95;;;;;;;;;;5055296;28;20036;-59
2023/06/09 01:21:24;;;;;;;5.88;4.53;;;;;;;;;;5054938;28;20108;-59
2023/06/09 01:23:53;;;;;;;5.68;4.47;;;;;;;;;;5054783;28;20048;-59
2023/06/09 01:26:20;;;;;;;6.85;5.03;;;;;;;;;;5055481;28;20021;-59
2023/06/09 01:28:47;;;;;;;5.53;5.03;;;;;;;;;;5055051;28;20058;-59
2023/06/09 01:31:15;;;;;;;5.05;4.55;;;;;;;;;;5054771;28;20382;-59
2023/06/09 01:33:42;;;;;;;4.45;4.05;;;;;;;;;;5055487;28;20060;-59
2023/06/09 01:36:07;;;;;;;6.53;4.20;;;;;;;;;;5055565;28;20025;-59
2023/06/09 01:38:33;;;;;;;6.38;4.18;;;;;;;;;;5054878;28;20029;-59
2023/06/09 01:40:59;;;;;;;6.30;4.97;;;;;;;;;;5054477;28;20066;-59
2023/06/09 01:43:25;;;;;;;6.43;4.90;;;;;;;;;;5054778;28;20126;-59
2023/06/09 01:45:52;;;;;;;6.38;4.95;;;;;;;;;;5054838;28;20057;-59
2023/06/09 01:48:28;;;;;;;5.82;4.28;;;;;;;;;;5054512;28;20032;-59
2023/06/09 01:51:04;;;;;;;6.57;4.82;;;;;;;;;;5054995;28;20032;-59
2023/06/09 01:53:32;;;;;;;5.57;4.63;;;;;;;;;;5054914;28;20101;-59
2023/06/09 01:56:11;;;;;;;5.47;4.35;;;;;;;;;;5054599;28;20025;-59
2023/06/09 01:58:40;;;;;;;5.25;4.68;;;;;;;;;;5054862;28;20471;-59
2023/06/09 02:01:08;;;;;;;5.05;4.15;;;;;;;;;;5054426;28;20434;-59
2023/06/09 02:03:36;;;;;;;7.43;4.82;;;;;;;;;;5054280;28;20021;-59
2023/06/09 02:06:03;;;;;;;5.25;4.75;;;;;;;;;;5053980;28;20029;-59
2023/06/09 02:08:30;;;;;;;5.45;4.53;;;;;;;;;;5054226;28;20126;-59
2023/06/09 02:10:56;;;;;;;5.60;4.75;;;;;;;;;;5054253;28;20057;-59
2023/06/09 02:13:22;;;;;;;4.82;4.32;;;;;;;;;;5054223;28;20028;-59
2023/06/09 02:15:48;;;;;;;5.60;4.65;;;;;;;;;;5054201;28;20025;-59
2023/06/09 02:18:15;;;;;;;5.03;4.40;;;;;;;;;;5054658;28;20036;-59
2023/06/09 02:20:42;;;;;;;6.82;4.65;;;;;;;;;;5054101;28;20024;-59
2023/06/09 02:23:08;;;;;;;7.40;4.63;;;;;;;;;;5054540;28;20032;-59
2023/06/09 02:25:34;;;;;;;6.80;5.28;;;;;;;;;;5054082;28;20025;-59
2023/06/09 02:28:02;;;;;;;6.15;4.85;;;;;;;;;;5054504;28;20078;-59
2023/06/09 02:30:28;;;;;;;5.32;4.82;;;;;;;;;;5053998;28;20056;-59
2023/06/09 02:32:55;;;;;;;7.22;5.25;;;;;;;;;;5054474;28;20068;-59
2023/06/09 02:35:21;;;;;;;5.97;5.38;;;;;;;;;;5054169;28;20025;-59
2023/06/09 02:37:47;;;;;;;6.15;5.55;;;;;;;;;;5054511;28;20036;-59
2023/06/09 02:40:13;;;;;;;8.88;5.25;;;;;;;;;;5054536;28;20032;-59
2023/06/09 02:42:40;;;;;;;6.25;5.47;;;;;;;;;;5054025;28;20017;-59
2023/06/09 02:45:07;;;;;;;6.25;5.07;;;;;;;;;;5054307;28;20351;-59
2023/06/09 02:47:33;;;;;;;7.93;5.22;;;;;;;;;;5053985;28;20029;-59
2023/06/09 02:49:59;;;;;;;6.47;5.88;;;;;;;;;;5053645;28;20138;-59
2023/06/09 02:52:28;;;;;;;7.45;5.68;;;;;;;;;;5053660;28;20470;-59
2023/06/09 02:54:54;;;;;;;8.55;6.13;;;;;;;;;;5053645;28;20021;-59
2023/06/09 02:57:20;;;;;;;7.40;6.00;;;;;;;;;;5053725;28;20040;-59
2023/06/09 02:59:46;;;;;;;7.00;6.30;;;;;;;;;;5053903;28;20120;-59
2023/06/09 03:02:13;;;;;;;7.25;6.20;;;;;;;;;;5053884;28;20056;-59
2023/06/09 03:04:40;;;;;;;6.93;5.55;;;;;;;;;;5053678;28;20024;-59
2023/06/09 03:07:09;;;;;;;6.82;5.90;;;;;;;;;;5053988;28;20032;-59
2023/06/09 03:09:35;;;;;;;6.90;5.97;;;;;;;;;;5053413;28;20029;-59
2023/06/09 03:12:02;;;;;;;6.78;6.07;;;;;;;;;;5053569;28;20344;-59
2023/06/09 03:14:28;;;;;;;7.22;6.53;;;;;;;;;;5053060;28;20040;-59
2023/06/09 03:16:54;;;;;;;7.95;6.43;;;;;;;;;;5053829;28;20075;-59
2023/06/09 03:19:20;;;;;;;6.78;6.13;;;;;;;;;;5056224;28;20096;-59
2023/06/09 03:21:46;;;;;;;6.00;5.40;;;;;;;;;;5057730;28;20036;-59
2023/06/09 03:24:12;;;;;;;7.10;6.25;;;;;;;;;;5057355;28;20039;-59
2023/06/09 03:26:38;;;;;;;6.45;5.70;;;;;;;;;;5058038;28;20024;-59
2023/06/09 03:29:04;;;;;;;6.75;6.05;;;;;;;;;;5057217;28;20043;-59
2023/06/09 03:31:30;;;;;;;7.32;6.35;;;;;;;;;;5057281;28;20021;-59
2023/06/09 03:33:56;;;;;;;6.07;5.45;;;;;;;;;;5057315;28;20013;-59
2023/06/09 03:36:23;;;;;;;6.03;5.43;;;;;;;;;;5057864;28;20021;-59
2023/06/09 03:38:50;;;;;;;6.93;5.90;;;;;;;;;;5057445;28;20031;-59
2023/06/09 03:41:16;;;;;;;5.80;5.20;;;;;;;;;;5057163;28;20053;-59
2023/06/09 03:43:42;;;;;;;6.75;6.00;;;;;;;;;;5056883;28;20064;-59
2023/06/09 03:46:08;;;;;;;6.35;5.45;;;;;;;;;;5056930;28;20075;-59
2023/06/09 03:48:33;;;;;;;6.30;5.63;;;;;;;;;;5057261;28;20029;-59
2023/06/09 03:51:00;;;;;;;7.60;6.10;;;;;;;;;;5057052;28;20025;-59
2023/06/09 03:53:25;;;;;;;7.35;6.60;;;;;;;;;;5057554;28;20170;-59
2023/06/09 03:55:51;;;;;;;7.72;6.97;;;;;;;;;;5057505;28;20079;-59
2023/06/09 03:58:17;;;;;;;7.10;6.40;;;;;;;;;;5056586;28;20475;-59
2023/06/09 04:00:43;;;;;;;8.68;6.03;;;;;;;;;;5056822;28;20057;-59
2023/06/09 04:03:09;;;;;;;7.78;6.97;;;;;;;;;;5057211;28;20017;-59
2023/06/09 04:05:35;;;;;;;6.70;5.85;;;;;;;;;;5057351;28;20029;-59
2023/06/09 04:08:01;;;;;;;7.30;6.53;;;;;;;;;;5057218;28;20025;-59
2023/06/09 04:10:27;;;;;;;7.18;6.47;;;;;;;;;;5056631;28;20033;-59
2023/06/09 04:12:53;;;;;;;6.22;5.57;;;;;;;;;;5056615;28;20105;-59
2023/06/09 04:15:19;;;;;;;7.40;6.65;;;;;;;;;;5056680;28;20049;-59
2023/06/09 04:17:45;;;;;;;6.65;6.03;;;;;;;;;;5057346;28;20025;-59
2023/06/09 04:20:12;;;;;;;7.05;6.03;;;;;;;;;;5056486;28;20098;-59
2023/06/09 04:22:46;;;;;;;6.75;6.05;;;;;;;;;;5056362;28;20039;-59
2023/06/09 04:25:13;;;;;;;6.47;5.50;;;;;;;;;;5056414;28;20033;-59
2023/06/09 04:27:39;;;;;;;7.05;6.00;;;;;;;;;;5057126;28;20025;-59
2023/06/09 04:30:05;;;;;;;5.25;4.70;;;;;;;;;;5055928;28;20036;-59
2023/06/09 04:32:33;;;;;;;6.97;6.32;;;;;;;;;;5056298;28;20462;-59
2023/06/09 04:34:59;;;;;;;5.28;4.78;;;;;;;;;;5056182;28;20029;-59
2023/06/09 04:37:25;;;;;;;6.55;5.50;;;;;;;;;;5056148;28;20519;-59
2023/06/09 04:39:52;;;;;;;7.22;5.75;;;;;;;;;;5056340;28;20029;-59
2023/06/09 04:42:24;;;;;;;6.28;5.68;;;;;;;;;;5056823;28;20021;-59
2023/06/09 04:44:50;;;;;;;7.43;6.45;;;;;;;;;;5056627;28;20466;-59
2023/06/09 04:47:20;;;;;;;8.05;6.38;;;;;;;;;;5056436;28;20029;-59
2023/06/09 04:49:46;;;;;;;7.93;6.23;;;;;;;;;;5055913;28;20029;-59
2023/06/09 04:52:13;;;;;;;6.68;6.05;;;;;;;;;;5055902;28;20037;-59
2023/06/09 04:54:40;;;;;;;6.60;5.85;;;;;;;;;;5056153;28;20025;-59
2023/06/09 04:57:09;;;;;;;6.47;5.65;;;;;;;;;;5055651;28;20542;-59
2023/06/09 04:59:35;;;;;;;5.57;5.00;;;;;;;;;;5055423;28;20062;-59
2023/06/09 05:02:02;;;;;;;6.00;4.93;;;;;;;;;;5056247;28;20374;-59
2023/06/09 05:04:28;;;;;;;9.82;5.40;;;;;;;;;;5055444;28;20024;-59
2023/06/09 05:06:55;;;;;;;6.88;5.22;;;;;;;;;;5055549;28;20348;-59
2023/06/09 05:09:21;;;;;;;7.03;5.32;;;;;;;;;;5055517;28;20387;-59
2023/06/09 05:11:47;;;;;;;6.68;5.55;;;;;;;;;;5056241;28;20032;-59
2023/06/09 05:14:13;;;;;;;6.40;5.60;;;;;;;;;;5055429;28;20051;-59
2023/06/09 05:16:39;;;;;;;5.68;4.70;;;;;;;;;;5055439;28;20108;-59
2023/06/09 05:19:06;;;;;;;5.80;5.22;;;;;;;;;;5055400;28;20047;-59
2023/06/09 05:21:32;;;;;;;8.15;5.63;;;;;;;;;;5055878;28;20068;-59
2023/06/09 05:23:58;;;;;;;5.65;4.93;;;;;;;;;;5054981;28;20482;-59
2023/06/09 05:26:25;;;;;;;5.18;4.68;;;;;;;;;;5056045;28;20072;-59
2023/06/09 05:28:51;;;;;;;5.35;4.85;;;;;;;;;;5055649;28;20040;-59
2023/06/09 05:31:17;;;;;;;6.03;5.43;;;;;;;;;;5054827;28;20025;-59
2023/06/09 05:33:43;;;;;;;7.57;4.88;;;;;;;;;;5055102;28;20363;-59
2023/06/09 05:36:09;;;;;;;5.43;4.78;;;;;;;;;;5055387;28;20028;-59
2023/06/09 05:38:35;;;;;;;4.90;3.85;;;;;;;;;;5054975;28;20356;-59
2023/06/09 05:41:01;;;;;;;5.30;4.80;;;;;;;;;;5054164;28;20033;-59
2023/06/09 05:43:28;;;;;;;6.32;4.80;;;;;;;;;;5054860;28;20368;-59
2023/06/09 05:45:54;;;;;;;5.93;4.55;;;;;;;;;;5055342;28;20390;-59
2023/06/09 05:48:20;;;;;;;5.68;5.07;;;;;;;;;;5054735;28;20021;-59
2023/06/09 05:50:46;;;;;;;5.25;4.65;;;;;;;;;;5054571;28;20067;-59
2023/06/09 05:53:12;;;;;;;5.60;4.93;;;;;;;;;;5054602;28;20021;-59
2023/06/09 05:55:38;;;;;;;5.65;5.00;;;;;;;;;;5054675;28;20029;-59
2023/06/09 05:58:05;;;;;;;5.15;4.57;;;;;;;;;;5055409;28;20029;-59
2023/06/09 06:00:31;;;;;;;5.45;4.32;;;;;;;;;;5054835;28;20040;-59
2023/06/09 06:03:00;;;;;;;5.45;4.63;;;;;;;;;;5054370;28;20024;-59
2023/06/09 06:05:26;;;;;;;5.28;4.78;;;;;;;;;;5054522;28;20369;-59
2023/06/09 06:07:52;;;;;;;5.68;4.47;;;;;;;;;;5055002;28;20025;-59
2023/06/09 06:10:18;;;;;;;4.90;4.40;;;;;;;;;;5054361;28;20033;-59
2023/06/09 06:12:44;;;;;;;6.07;5.00;;;;;;;;;;5054838;28;20017;-59
2023/06/09 06:15:10;;;;;;;4.72;3.83;;;;;;;;;;5054421;28;20051;-59
2023/06/09 06:17:36;;;;;;;6.35;4.38;;;;;;;;;;5054344;28;20056;-59
2023/06/09 06:20:03;;;;;;;5.13;4.63;;;;;;;;;;5054192;28;20033;-59
2023/06/09 06:22:29;;;;;;;4.43;4.03;;;;;;;;;;5054484;28;20048;-59
2023/06/09 06:24:55;;;;;;;4.72;4.25;;;;;;;;;;5053869;28;20442;-59
2023/06/09 06:27:22;;;;;;;5.93;5.07;;;;;;;;;;5054111;28;20021;-59
2023/06/09 06:29:48;;;;;;;5.20;4.70;;;;;;;;;;5053986;28;20037;-59
2023/06/09 06:32:14;;;;;;;10.73;4.40;;;;;;;;;;5054011;28;20374;-59
2023/06/09 06:34:40;;;;;;;6.32;5.10;;;;;;;;;;5054054;28;20417;-59
2023/06/09 06:37:06;;;;;;;6.97;4.00;;;;;;;;;;5054527;28;20049;-61
2023/06/09 06:39:32;;;;;;;4.95;4.05;;;;;;;;;;5054005;28;20525;-61
2023/06/09 06:41:58;;;;;;;5.10;4.40;;;;;;;;;;5053890;28;20105;-61
2023/06/09 06:44:24;;;;;;;5.10;4.03;;;;;;;;;;5053839;28;20025;-61
2023/06/09 06:46:50;;;;;;;6.15;3.90;;;;;;;;;;5053715;28;20467;-61
2023/06/09 06:49:16;;;;;;;4.97;4.07;;;;;;;;;;5053851;28;20029;-61
2023/06/09 06:51:42;;;;;;;5.18;3.95;;;;;;;;;;5054134;28;20539;-59
2023/06/09 06:54:08;;;;;;;3.40;3.10;;;;;;;;;;5053447;28;20111;-60
2023/06/09 06:56:34;;;;;;;4.70;3.80;;;;;;;;;;5054291;28;20037;-60
2023/06/09 06:59:00;;;;;;;3.50;2.97;;;;;;;;;;5053591;28;20457;-59
2023/06/09 07:01:26;;;;;;;3.70;3.30;;;;;;;;;;5054208;28;20120;-59
2023/06/09 07:03:52;;;;;;;4.30;3.15;;;;;;;;;;5053484;28;20049;-59
2023/06/09 07:06:22;;;;;;;4.53;3.63;;;;;;;;;;5053934;28;20464;-59
2023/06/09 07:08:49;;;;;;;5.13;3.58;;;;;;;;;;5053982;28;20055;-59
2023/06/09 07:11:15;;;;;;;3.38;2.60;;;;;;;;;;5053860;28;20108;-60
2023/06/09 07:13:41;;;;;;;3.75;3.08;;;;;;;;;;5053428;28;20501;-60
2023/06/09 07:16:07;;;;;;;3.60;2.80;;;;;;;;;;5054104;28;20021;-60
2023/06/09 07:18:33;;;;;;;4.68;2.97;;;;;;;;;;5053506;28;20036;-60
2023/06/09 07:21:00;;;;;;;3.42;2.80;;;;;;;;;;5053419;28;20017;-60
2023/06/09 07:23:26;;;;;;;3.55;2.53;;;;;;;;;;5053662;28;20371;-60
2023/06/09 07:25:52;;;;;;;3.75;3.08;;;;;;;;;;5053854;28;20025;-60
2023/06/09 07:28:18;;;;;;;3.95;2.75;;;;;;;;;;5053089;28;20036;-59
2023/06/09 07:30:44;;;;;;;3.90;3.47;;;;;;;;;;5053716;28;20021;-60
2023/06/09 07:33:10;;;;;;;4.25;2.60;;;;;;;;;;5053019;28;20459;-59
2023/06/09 07:35:36;;;;;;;4.13;3.08;;;;;;;;;;5053269;28;20027;-60
2023/06/09 07:38:02;;;;;;;3.92;2.50;;;;;;;;;;5053860;28;20031;-60
2023/06/09 07:40:28;;;;;;;3.45;2.92;;;;;;;;;;5053306;28;20100;-60
2023/06/09 07:42:54;;;;;;;4.63;3.40;;;;;;;;;;5053259;28;20068;-60
2023/06/09 07:45:19;;;;;;;3.85;2.17;;;;;;;;;;5053588;28;20022;-60
2023/06/09 07:47:46;;;;;;;3.45;2.55;;;;;;;;;;5053954;28;20051;-60
2023/06/09 07:50:12;;;;;;;4.28;3.20;;;;;;;;;;5053692;28;20040;-60
2023/06/09 07:52:39;;;;;;;3.50;2.10;;;;;;;;;;5053318;28;20112;-60
2023/06/09 07:55:06;;;;;;;2.83;2.30;;;;;;;;;;5053143;28;20029;-60
2023/06/09 07:57:32;;;;;;;3.17;2.67;;;;;;;;;;5053156;28;20478;-60
2023/06/09 07:59:58;;;;;;;3.22;2.67;;;;;;;;;;5053226;28;20025;-60
2023/06/09 08:02:24;;;;;;;3.13;2.63;;;;;;;;;;5053148;28;20066;-60
2023/06/09 08:04:51;;;;;;;3.47;2.83;;;;;;;;;;5054312;28;20421;-61
2023/06/09 08:07:17;;;;;;;4.55;2.80;;;;;;;;;;5057573;28;20439;-61
2023/06/09 08:09:43;;;;;;;3.35;2.70;;;;;;;;;;5057046;28;20031;-60
2023/06/09 08:12:10;;;;;;;3.47;2.40;;;;;;;;;;5056610;28;20025;-61
2023/06/09 08:14:36;;;;;;;3.50;2.28;;;;;;;;;;5056629;28;20045;-61
2023/06/09 08:17:02;;;;;;;3.28;2.45;;;;;;;;;;5056843;28;20487;-61
2023/06/09 08:19:28;;;;;;;3.45;2.95;;;;;;;;;;5057142;28;20032;-61
2023/06/09 08:21:54;;;;;;;4.05;2.67;;;;;;;;;;5056374;28;20025;-61
2023/06/09 08:24:20;;;;;;;3.50;2.42;;;;;;;;;;5056103;28;20021;-61
2023/06/09 08:26:48;;;;;;;3.55;2.53;;;;;;;;;;5056472;28;20075;-59
2023/06/09 08:29:15;;;;;;;3.15;2.15;;;;;;;;;;5055966;28;20574;-59
2023/06/09 08:31:41;;;;;;;3.10;2.60;;;;;;;;;;5056761;28;20029;-59
2023/06/09 08:34:07;;;;;;;3.40;2.47;;;;;;;;;;5056114;28;20379;-59
2023/06/09 08:36:33;;;;;;;2.75;2.10;;;;;;;;;;5056276;28;20478;-59
2023/06/09 08:38:59;;;;;;;3.08;2.67;;;;;;;;;;5056654;28;20379;-59
2023/06/09 08:41:28;;;;;;;3.53;2.42;;;;;;;;;;5056076;28;20025;-59
2023/06/09 08:43:55;;;;;;;3.90;2.97;;;;;;;;;;5056262;28;20025;-59
2023/06/09 08:46:21;;;;;;;3.65;2.55;;;;;;;;;;5055900;28;20036;-58
2023/06/09 08:48:51;;;;;;;3.78;2.40;;;;;;;;;;5055992;28;20028;-59
2023/06/09 08:51:17;;;;;;;2.75;1.95;;;;;;;;;;5055937;28;20025;-59
2023/06/09 08:53:45;;;;;;;3.95;2.17;;;;;;;;;;5055892;28;20100;-59
2023/06/09 08:56:11;;;;;;;3.45;2.42;;;;;;;;;;5056395;28;20402;-59
2023/06/09 08:58:37;;;;;;;3.30;2.53;;;;;;;;;;5056305;28;20064;-59
2023/06/09 09:01:03;;;;;;;4.20;2.92;;;;;;;;;;5056091;28;20056;-59
2023/06/09 09:03:29;;;;;;;3.67;2.33;;;;;;;;;;5055647;28;20029;-59
2023/06/09 09:05:55;;;;;;;3.17;2.50;;;;;;;;;;5055662;28;20024;-59
2023/06/09 09:08:21;;;;;;;4.10;2.53;;;;;;;;;;5055536;28;20044;-59
2023/06/09 09:10:47;;;;;;;3.20;2.05;;;;;;;;;;5055873;28;20098;-59
2023/06/09 09:13:13;;;;;;;2.85;2.10;;;;;;;;;;5055547;28;20447;-60
2023/06/09 09:15:49;;;;;;;2.65;2.05;;;;;;;;;;5054527;28;20420;-59
2023/06/09 09:18:17;;;;;;;3.15;2.08;;;;;;;;;;5055552;28;20419;-59
2023/06/09 09:20:43;;;;;;;3.70;2.58;;;;;;;;;;5054922;28;20494;-59
2023/06/09 09:23:09;;;;;;;3.13;2.30;;;;;;;;;;5055348;28;20029;-59
2023/06/09 09:25:35;;;;;;;2.72;2.22;;;;;;;;;;5055780;28;20448;-59
2023/06/09 09:28:02;;;;;;;3.38;2.55;;;;;;;;;;5055282;28;20021;-59
2023/06/09 09:30:43;;;;;;;3.60;2.35;;;;;;;;;;5055518;28;20056;-59
2023/06/09 09:33:09;;;;;;;4.38;2.97;;;;;;;;;;5054956;28;20048;-59
2023/06/09 09:35:39;;;;;;;3.65;2.33;;;;;;;;;;5054986;28;20025;-59
2023/06/09 09:38:10;;;;;;;3.08;2.40;;;;;;;;;;5055210;28;20410;-59
2023/06/09 09:40:41;;;;;;;2.95;2.22;;;;;;;;;;5055505;28;20029;-59
2023/06/09 09:43:08;;;;;;;3.10;2.13;;;;;;;;;;5055557;28;20029;-59
2023/06/09 09:45:37;;;;;;;3.42;2.03;;;;;;;;;;5055061;28;20079;-59
2023/06/09 09:48:10;;;;;;;3.50;2.42;;;;;;;;;;5054505;28;20035;-59
2023/06/09 09:50:37;;;;;;;3.45;2.20;;;;;;;;;;5054624;28;20044;-59
2023/06/09 09:53:03;;;;;;;2.90;2.45;;;;;;;;;;5054647;28;20086;-59
2023/06/09 09:55:29;;;;;;;3.40;2.38;;;;;;;;;;5054660;28;20028;-59
2023/06/09 09:57:57;;;;;;;3.67;2.45;;;;;;;;;;5054612;28;20036;-59
2023/06/09 10:00:23;;;;;;;2.58;1.90;;;;;;;;;;5054384;28;20021;-59
2023/06/09 10:02:51;;;;;;;3.00;2.28;;;;;;;;;;5054981;28;20029;-59
2023/06/09 10:05:17;;;;;;;3.15;2.13;;;;;;;;;;5054745;28;20028;-59
2023/06/09 10:07:45;;;;;;;3.03;2.03;;;;;;;;;;5054511;28;20025;-59
2023/06/09 10:10:12;;;;;;;4.15;2.22;;;;;;;;;;5054410;28;20029;-59
2023/06/09 10:12:38;;;;;;;2.65;1.65;;;;;;;;;;5054342;28;20032;-59
2023/06/09 10:15:08;;;;;;;3.03;2.28;;;;;;;;;;5054305;28;20540;-59
2023/06/09 10:17:36;;;;;;;2.78;1.58;;;;;;;;;;5054834;28;20025;-59
2023/06/09 10:20:05;;;;;;;2.80;2.00;;;;;;;;;;5054858;28;20158;-59
2023/06/09 10:22:31;;;;;;;2.65;2.00;;;;;;;;;;5055022;28;20028;-59
2023/06/09 10:24:58;;;;;;;2.42;1.60;;;;;;;;;;5054789;28;20082;-59
2023/06/09 10:27:24;;;;;;;2.47;1.48;;;;;;;;;;5054298;28;20029;-59
2023/06/09 10:29:51;;;;;;;2.95;1.60;;;;;;;;;;5054315;28;20041;-59
2023/06/09 10:32:21;;;;;;;2.60;1.73;;;;;;;;;;5054420;28;20422;-59
2023/06/09 10:34:48;;;;;;;3.42;1.80;;;;;;;;;;5054092;28;20029;-59
2023/06/09 10:37:26;;;;;;;3.15;2.10;;;;;;;;;;5054622;28;20028;-60
2023/06/09 10:40:05;;;;;;;2.92;2.15;;;;;;;;;;5054528;28;20029;-59
2023/06/09 10:42:40;;;;;;;2.90;1.88;;;;;;;;;;5053970;28;20029;-60
2023/06/09 10:45:05;;;;;;;3.00;1.95;;;;;;;;;;5054104;28;20083;-60
2023/06/09 10:47:45;;;;;;;3.42;1.75;;;;;;;;;;5053986;28;20468;-60
2023/06/09 10:50:24;;;;;;;2.10;1.58;;;;;;;;;;5054215;28;20526;-60
2023/06/09 10:52:53;;;;;;;2.15;1.52;;;;;;;;;;5054061;28;20029;-60
2023/06/09 10:55:21;;;;;;;2.25;1.40;;;;;;;;;;5053697;28;20032;-60
2023/06/09 10:57:47;;;;;;;2.20;1.33;;;;;;;;;;5054605;28;20029;-60
2023/06/09 11:00:15;;;;;;;2.75;1.83;;;;;;;;;;5053665;28;20032;-60
2023/06/09 11:02:42;;;;;;;3.70;1.75;;;;;;;;;;5053614;28;20033;-60
2023/06/09 11:05:09;;;;;;;2.88;1.58;;;;;;;;;;5053502;28;20476;-60
2023/06/09 11:07:43;;;;;;;2.22;1.63;;;;;;;;;;5054096;28;20379;-59
2023/06/09 11:10:11;;;;;;;3.67;1.95;;;;;;;;;;5053592;28;20025;-60
2023/06/09 11:12:37;;;;;;;2.35;1.60;;;;;;;;;;5053206;28;20455;-60
2023/06/09 11:15:03;;;;;;;2.85;1.52;;;;;;;;;;5054035;28;20056;-60
2023/06/09 11:17:41;;;;;;;2.97;1.40;;;;;;;;;;5054413;28;20025;-60
2023/06/09 11:20:11;;;;;;;2.38;1.50;;;;;;;;;;5053994;28;20017;-60
2023/06/09 11:22:49;;;;;;;2.30;1.60;;;;;;;;;;5053899;28;20151;-60
2023/06/09 11:25:15;;;;;;;2.03;1.35;;;;;;;;;;5053968;28;20053;-60
2023/06/09 11:27:42;;;;;;;2.30;1.60;;;;;;;;;;5053683;28;20076;-60
2023/06/09 11:30:08;;;;;;;2.60;1.65;;;;;;;;;;5053393;28;20032;-59
2023/06/09 11:32:47;;;;;;;4.47;1.80;;;;;;;;;;5053675;28;20057;-60
2023/06/09 11:35:40;;;;;;;3.88;1.60;;;;;;;;;;5053366;28;20021;-60
2023/06/09 11:38:09;;;;;;;2.53;1.95;;;;;;;;;;5053662;28;20032;-60
2023/06/09 11:40:39;;;;;;;5.85;1.52;;;;;;;;;;5056713;28;20066;-60
2023/06/09 11:43:09;;;;;;;3.30;2.90;;;;;;;;;;5057538;28;20032;-59
2023/06/09 11:45:35;;;;;;;2.70;1.88;;;;;;;;;;5057154;28;20029;-60
2023/06/09 11:48:04;;;;;;;4.95;2.00;;;;;;;;;;5057319;28;20098;-60
2023/06/09 11:50:42;;;;;;;2.70;1.67;;;;;;;;;;5057647;28;20040;-60
2023/06/09 11:53:09;;;;;;;3.50;2.20;;;;;;;;;;5057000;28;20025;-60
2023/06/09 11:55:35;;;;;;;2.90;2.28;;;;;;;;;;5056666;28;20375;-60
2023/06/09 11:58:02;;;;;;;3.13;2.33;;;;;;;;;;5057520;28;20029;-60
2023/06/09 12:00:29;;;;;;;2.83;2.08;;;;;;;;;;5056832;28;20079;-60
2023/06/09 12:02:56;;;;;;;3.13;1.98;;;;;;;;;;5056673;28;20025;-60
2023/06/09 12:05:23;;;;;;;4.93;1.95;;;;;;;;;;5056824;28;20047;-60
2023/06/09 12:07:50;;;;;;;3.20;2.40;;;;;;;;;;5056721;28;20029;-59
2023/06/09 12:10:17;;;;;;;3.33;2.13;;;;;;;;;;5056804;28;20058;-60
2023/06/09 12:12:46;;;;;;;2.92;1.83;;;;;;;;;;5057441;28;20029;-60
2023/06/09 12:15:13;;;;;;;2.45;1.73;;;;;;;;;;5056305;28;20045;-60
2023/06/09 12:17:40;;;;;;;2.78;2.00;;;;;;;;;;5056892;28;20505;-59
2023/06/09 12:20:21;;;;;;;2.90;2.10;;;;;;;;;;5056506;28;20112;-60
2023/06/09 12:22:52;;;;;;;2.30;1.73;;;;;;;;;;5057216;28;20136;-60
2023/06/09 12:25:38;;;;;;;3.47;2.35;;;;;;;;;;5056450;28;20420;-59
2023/06/09 12:28:15;;;;;;;3.35;1.83;;;;;;;;;;5055954;28;20049;-60
2023/06/09 12:30:47;;;;;;;2.55;1.40;;;;;;;;;;5056315;28;20029;-60
2023/06/09 12:33:15;;;;;;;4.45;1.77;;;;;;;;;;5056579;28;20017;-60
2023/06/09 12:35:41;;;;;;;8.23;1.70;;;;;;;;;;5056227;28;20103;-60
2023/06/09 12:38:10;;;;;;;2.40;1.45;;;;;;;;;;5056286;28;20029;-60
2023/06/09 12:41:06;;;;;;;2.65;1.83;;;;;;;;;;5056502;28;20371;-60
2023/06/09 12:43:51;;;;;;;3.08;2.40;;;;;;;;;;5051233;28;20033;-60
2023/06/09 12:46:34;;;;;;;2.58;1.80;;;;;;;;;;5056563;28;20028;-60
2023/06/09 12:49:10;;;;;;;2.63;1.42;;;;;;;;;;5055528;28;20371;-60
2023/06/09 12:51:37;;;;;;;2.33;1.45;;;;;;;;;;5055761;28;20017;-60
2023/06/09 12:54:03;;;;;;;2.70;1.77;;;;;;;;;;5056175;28;20021;-61
2023/06/09 12:56:30;;;;;;;3.10;1.80;;;;;;;;;;5056425;28;20402;-59
2023/06/09 12:58:57;;;;;;;2.83;1.75;;;;;;;;;;5055694;28;20029;-60
2023/06/09 13:01:26;;;;;;;3.28;2.10;;;;;;;;;;5055626;28;20048;-60
2023/06/09 13:03:53;;;;;;;2.55;1.75;;;;;;;;;;5055730;28;20025;-61
2023/06/09 13:06:19;;;;;;;2.35;1.83;;;;;;;;;;5056141;28;20075;-60
2023/06/09 13:08:45;;;;;;;3.00;1.67;;;;;;;;;;5055446;28;20029;-60
2023/06/09 13:11:11;;;;;;;2.72;2.10;;;;;;;;;;5055923;28;20033;-61
2023/06/09 13:13:38;;;;;;;3.30;2.63;;;;;;;;;;5055984;28;20479;-61
2023/06/09 13:16:04;;;;;;;3.28;2.15;;;;;;;;;;5055389;28;20040;-61
2023/06/09 13:18:30;;;;;;;3.50;1.77;;;;;;;;;;5055419;28;20027;-60
2023/06/09 13:20:55;;;;;;;2.40;1.52;;;;;;;;;;5056058;28;20494;-60
2023/06/09 13:23:22;;;;;;;4.28;1.75;;;;;;;;;;5055551;28;20032;-60
2023/06/09 13:25:48;;;;;;;2.20;1.80;;;;;;;;;;5055303;28;20340;-60
2023/06/09 13:28:15;;;;;;;3.60;1.75;;;;;;;;;;5054968;28;20501;-60
2023/06/09 13:30:42;;;;;;;6.22;2.22;;;;;;;;;;5055601;28;20068;-60
2023/06/09 13:33:08;;;;;;;3.88;2.30;;;;;;;;;;5055037;28;20541;-60
2023/06/09 13:35:34;;;;;;;5.30;2.08;;;;;;;;;;5055148;28;20060;-60
2023/06/09 13:38:00;;;;;;;3.08;2.08;;;;;;;;;;5055092;28;20025;-60
2023/06/09 13:40:26;;;;;;;2.97;1.98;;;;;;;;;;5055504;28;20479;-61
2023/06/09 13:42:53;;;;;;;2.60;2.00;;;;;;;;;;5054950;28;20075;-60
2023/06/09 13:45:19;;;;;;;2.92;2.05;;;;;;;;;;5054870;28;20025;-60
2023/06/09 13:47:45;;;;;;;2.72;2.05;;;;;;;;;;5054824;28;20471;-61
2023/06/09 13:50:11;;;;;;;3.10;2.33;;;;;;;;;;5054809;28;20505;-60
2023/06/09 13:52:38;;;;;;;3.05;2.15;;;;;;;;;;5055253;28;20414;-60
2023/06/09 13:55:05;;;;;;;2.90;2.15;;;;;;;;;;5055479;28;20029;-60
2023/06/09 13:57:30;;;;;;;3.50;2.13;;;;;;;;;;5054710;28;20028;-60
2023/06/09 13:59:56;;;;;;;2.88;2.00;;;;;;;;;;5054638;28;20021;-60
2023/06/09 14:02:22;;;;;;;2.80;1.90;;;;;;;;;;5054575;28;20032;-60
2023/06/09 14:04:49;;;;;;;3.85;2.67;;;;;;;;;;5054501;28;20025;-60
2023/06/09 14:07:15;;;;;;;3.63;2.38;;;;;;;;;;5054736;28;20058;-60
2023/06/09 14:09:41;;;;;;;3.20;2.30;;;;;;;;;;5054502;28;20481;-60
2023/06/09 14:12:08;;;;;;;2.50;1.98;;;;;;;;;;5054731;28;20043;-60
2023/06/09 14:14:34;;;;;;;4.07;2.10;;;;;;;;;;5054359;28;20088;-60
2023/06/09 14:17:00;;;;;;;3.97;2.67;;;;;;;;;;5054888;28;20024;-60
2023/06/09 14:19:26;;;;;;;2.97;2.10;;;;;;;;;;5054241;28;20025;-60
2023/06/09 14:21:52;;;;;;;2.78;1.98;;;;;;;;;;5054095;28;20021;-60
2023/06/09 14:24:18;;;;;;;2.80;2.00;;;;;;;;;;5054369;28;20418;-60
2023/06/09 14:26:44;;;;;;;2.35;1.83;;;;;;;;;;5054703;28;20367;-60
2023/06/09 14:29:10;;;;;;;4.30;1.95;;;;;;;;;;5053997;28;20037;-60
2023/06/09 14:31:36;;;;;;;2.15;1.60;;;;;;;;;;5054060;28;20032;-60
2023/06/09 14:34:02;;;;;;;2.78;2.03;;;;;;;;;;5053953;28;20024;-60
2023/06/09 14:36:28;;;;;;;3.42;2.15;;;;;;;;;;5054611;28;20447;-60
2023/06/09 14:38:54;;;;;;;2.67;2.33;;;;;;;;;;5053988;28;20064;-60
2023/06/09 14:41:21;;;;;;;2.60;2.00;;;;;;;;;;5054163;28;20025;-60
2023/06/09 14:43:47;;;;;;;3.50;2.20;;;;;;;;;;5053882;28;20025;-60
2023/06/09 14:46:13;;;;;;;2.40;1.90;;;;;;;;;;5054100;28;20024;-60